sensor_id;sensor_type;location;lat;lon;timestamp;temperature;humidity
68251;DHT22;55066;51.560;4.642;2023-08-12T00:01:48;20.49;97.76
68251;DHT22;55066;51.560;4.642;2023-08-12T00:04:14;20.58;96.46
68251;DHT22;55066;51.560;4.642;2023-08-12T00:06:43;20.58;99.99
68251;DHT22;55066;51.560;4.642;2023-08-12T00:09:09;20.48;99.99
68251;DHT22;55066;51.560;4.642;2023-08-12T00:11:37;20.31;99.99
68251;DHT22;55066;51.560;4.642;2023-08-12T00:14:03;20.43;99.99
68251;DHT22;55066;51.560;4.642;2023-08-12T00:16:29;20.35;99.99
68251;DHT22;55066;51.560;4.642;2023-08-12T00:18:54;20.44;99.99
68251;DHT22;55066;51.560;4.642;2023-08-12T00:21:20;20.40;99.99
68251;DHT22;55066;51.560;4.642;2023-08-12T00:23:45;20.51;99.99
68251;DHT22;55066;51.560;4.642;2023-08-12T00:26:13;20.30;97.85
68251;DHT22;55066;51.560;4.642;2023-08-12T00:28:38;20.44;97.63
68251;DHT22;55066;51.560;4.642;2023-08-12T00:31:04;20.47;99.99
68251;DHT22;55066;51.560;4.642;2023-08-12T00:33:29;20.34;99.99
68251;DHT22;55066;51.560;4.642;2023-08-12T00:35:55;20.33;99.99
68251;DHT22;55066;51.560;4.642;2023-08-12T00:38:20;20.26;99.99
68251;DHT22;55066;51.560;4.642;2023-08-12T00:40:46;20.16;99.99
68251;DHT22;55066;51.560;4.642;2023-08-12T00:43:12;20.31;99.99
68251;DHT22;55066;51.560;4.642;2023-08-12T00:45:38;20.24;99.99
68251;DHT22;55066;51.560;4.642;2023-08-12T00:48:04;20.18;99.99
68251;DHT22;55066;51.560;4.642;2023-08-12T00:50:30;20.21;99.99
68251;DHT22;55066;51.560;4.642;2023-08-12T00:52:56;20.12;99.99
68251;DHT22;55066;51.560;4.642;2023-08-12T00:55:22;20.12;99.99
68251;DHT22;55066;51.560;4.642;2023-08-12T00:57:48;20.17;99.99
68251;DHT22;55066;51.560;4.642;2023-08-12T01:00:14;20.14;99.99
68251;DHT22;55066;51.560;4.642;2023-08-12T01:02:44;20.20;98.75
68251;DHT22;55066;51.560;4.642;2023-08-12T01:05:13;20.10;99.99
68251;DHT22;55066;51.560;4.642;2023-08-12T01:07:39;19.97;99.99
68251;DHT22;55066;51.560;4.642;2023-08-12T01:10:05;19.85;99.99
68251;DHT22;55066;51.560;4.642;2023-08-12T01:12:37;19.79;99.99
68251;DHT22;55066;51.560;4.642;2023-08-12T01:15:11;19.76;99.99
68251;DHT22;55066;51.560;4.642;2023-08-12T01:17:41;19.73;99.99
68251;DHT22;55066;51.560;4.642;2023-08-12T01:20:08;19.73;99.99
68251;DHT22;55066;51.560;4.642;2023-08-12T01:22:34;19.86;99.99
68251;DHT22;55066;51.560;4.642;2023-08-12T01:25:05;19.82;99.99
68251;DHT22;55066;51.560;4.642;2023-08-12T01:27:30;19.86;99.99
68251;DHT22;55066;51.560;4.642;2023-08-12T01:29:56;19.86;99.99
68251;DHT22;55066;51.560;4.642;2023-08-12T01:32:40;19.80;99.99
68251;DHT22;55066;51.560;4.642;2023-08-12T01:35:32;19.75;99.99
68251;DHT22;55066;51.560;4.642;2023-08-12T01:37:57;19.78;99.99
68251;DHT22;55066;51.560;4.642;2023-08-12T01:40:24;19.87;99.15
68251;DHT22;55066;51.560;4.642;2023-08-12T01:42:50;19.96;99.99
68251;DHT22;55066;51.560;4.642;2023-08-12T01:45:18;20.01;99.99
68251;DHT22;55066;51.560;4.642;2023-08-12T01:47:45;19.89;99.99
68251;DHT22;55066;51.560;4.642;2023-08-12T01:50:11;19.83;99.99
68251;DHT22;55066;51.560;4.642;2023-08-12T01:52:37;19.78;99.99
68251;DHT22;55066;51.560;4.642;2023-08-12T01:55:02;19.79;99.99
68251;DHT22;55066;51.560;4.642;2023-08-12T01:57:28;19.90;99.99
68251;DHT22;55066;51.560;4.642;2023-08-12T01:59:54;19.90;99.99
68251;DHT22;55066;51.560;4.642;2023-08-12T02:02:19;19.75;99.99
68251;DHT22;55066;51.560;4.642;2023-08-12T02:04:45;19.89;99.99
68251;DHT22;55066;51.560;4.642;2023-08-12T02:07:11;20.01;99.99
68251;DHT22;55066;51.560;4.642;2023-08-12T02:09:36;20.05;99.99
68251;DHT22;55066;51.560;4.642;2023-08-12T02:12:02;19.94;99.99
68251;DHT22;55066;51.560;4.642;2023-08-12T02:14:27;19.85;99.99
68251;DHT22;55066;51.560;4.642;2023-08-12T02:16:53;19.97;99.99
68251;DHT22;55066;51.560;4.642;2023-08-12T02:19:20;19.99;99.99
68251;DHT22;55066;51.560;4.642;2023-08-12T02:21:46;20.00;99.99
68251;DHT22;55066;51.560;4.642;2023-08-12T02:24:11;19.97;99.99
68251;DHT22;55066;51.560;4.642;2023-08-12T02:26:37;19.93;99.99
68251;DHT22;55066;51.560;4.642;2023-08-12T02:29:02;19.80;99.99
68251;DHT22;55066;51.560;4.642;2023-08-12T02:31:28;19.71;99.99
68251;DHT22;55066;51.560;4.642;2023-08-12T02:33:53;19.63;99.99
68251;DHT22;55066;51.560;4.642;2023-08-12T02:36:19;19.65;99.99
68251;DHT22;55066;51.560;4.642;2023-08-12T02:38:44;19.54;99.99
68251;DHT22;55066;51.560;4.642;2023-08-12T02:41:10;19.48;99.99
68251;DHT22;55066;51.560;4.642;2023-08-12T02:43:35;19.45;99.99
68251;DHT22;55066;51.560;4.642;2023-08-12T02:46:01;19.30;99.99
68251;DHT22;55066;51.560;4.642;2023-08-12T02:48:27;19.21;99.99
68251;DHT22;55066;51.560;4.642;2023-08-12T02:50:52;19.13;99.99
68251;DHT22;55066;51.560;4.642;2023-08-12T02:53:18;19.32;99.99
68251;DHT22;55066;51.560;4.642;2023-08-12T02:55:46;19.47;99.99
68251;DHT22;55066;51.560;4.642;2023-08-12T02:58:12;19.41;99.99
68251;DHT22;55066;51.560;4.642;2023-08-12T03:00:41;19.36;99.99
68251;DHT22;55066;51.560;4.642;2023-08-12T03:03:07;19.30;99.99
68251;DHT22;55066;51.560;4.642;2023-08-12T03:05:32;19.41;99.99
68251;DHT22;55066;51.560;4.642;2023-08-12T03:07:58;19.44;99.99
68251;DHT22;55066;51.560;4.642;2023-08-12T03:10:26;19.44;99.99
68251;DHT22;55066;51.560;4.642;2023-08-12T03:12:52;19.44;99.99
68251;DHT22;55066;51.560;4.642;2023-08-12T03:15:19;19.44;99.99
68251;DHT22;55066;51.560;4.642;2023-08-12T03:17:45;19.41;99.99
68251;DHT22;55066;51.560;4.642;2023-08-12T03:20:11;19.35;99.99
68251;DHT22;55066;51.560;4.642;2023-08-12T03:22:37;19.41;99.99
68251;DHT22;55066;51.560;4.642;2023-08-12T03:25:04;19.38;99.99
68251;DHT22;55066;51.560;4.642;2023-08-12T03:27:30;19.36;99.99
68251;DHT22;55066;51.560;4.642;2023-08-12T03:29:55;19.32;99.99
68251;DHT22;55066;51.560;4.642;2023-08-12T03:32:21;19.44;99.99
68251;DHT22;55066;51.560;4.642;2023-08-12T03:34:47;19.42;99.99
68251;DHT22;55066;51.560;4.642;2023-08-12T03:37:13;19.39;99.99
68251;DHT22;55066;51.560;4.642;2023-08-12T03:39:39;19.32;99.99
68251;DHT22;55066;51.560;4.642;2023-08-12T03:42:05;19.32;99.99
68251;DHT22;55066;51.560;4.642;2023-08-12T03:44:30;19.34;99.99
68251;DHT22;55066;51.560;4.642;2023-08-12T03:46:56;19.10;99.99
68251;DHT22;55066;51.560;4.642;2023-08-12T03:49:21;19.10;99.99
68251;DHT22;55066;51.560;4.642;2023-08-12T03:51:47;19.35;99.99
68251;DHT22;55066;51.560;4.642;2023-08-12T03:54:13;19.27;99.99
68251;DHT22;55066;51.560;4.642;2023-08-12T03:56:39;19.03;99.99
68251;DHT22;55066;51.560;4.642;2023-08-12T03:59:05;18.80;99.99
68251;DHT22;55066;51.560;4.642;2023-08-12T04:01:30;18.85;99.99
68251;DHT22;55066;51.560;4.642;2023-08-12T04:03:56;18.69;99.99
68251;DHT22;55066;51.560;4.642;2023-08-12T04:06:21;19.10;99.99
68251;DHT22;55066;51.560;4.642;2023-08-12T04:08:46;18.77;99.99
68251;DHT22;55066;51.560;4.642;2023-08-12T04:11:12;19.06;99.99
68251;DHT22;55066;51.560;4.642;2023-08-12T04:13:39;19.34;99.99
68251;DHT22;55066;51.560;4.642;2023-08-12T04:16:05;19.21;99.99
68251;DHT22;55066;51.560;4.642;2023-08-12T04:18:30;19.13;99.99
68251;DHT22;55066;51.560;4.642;2023-08-12T04:20:56;19.14;99.99
68251;DHT22;55066;51.560;4.642;2023-08-12T04:23:22;19.17;99.99
68251;DHT22;55066;51.560;4.642;2023-08-12T04:25:48;19.02;99.99
68251;DHT22;55066;51.560;4.642;2023-08-12T04:28:15;19.23;99.99
68251;DHT22;55066;51.560;4.642;2023-08-12T04:30:46;19.14;99.99
68251;DHT22;55066;51.560;4.642;2023-08-12T04:33:14;18.92;99.99
68251;DHT22;55066;51.560;4.642;2023-08-12T04:35:40;19.02;99.99
68251;DHT22;55066;51.560;4.642;2023-08-12T04:38:06;19.08;99.99
68251;DHT22;55066;51.560;4.642;2023-08-12T04:40:32;19.17;99.99
68251;DHT22;55066;51.560;4.642;2023-08-12T04:42:59;19.04;99.99
68251;DHT22;55066;51.560;4.642;2023-08-12T04:45:25;19.14;99.99
68251;DHT22;55066;51.560;4.642;2023-08-12T04:47:51;19.13;99.99
68251;DHT22;55066;51.560;4.642;2023-08-12T04:50:18;19.10;99.99
68251;DHT22;55066;51.560;4.642;2023-08-12T04:52:44;19.14;99.99
68251;DHT22;55066;51.560;4.642;2023-08-12T04:55:09;19.08;99.99
68251;DHT22;55066;51.560;4.642;2023-08-12T04:57:38;19.04;99.99
68251;DHT22;55066;51.560;4.642;2023-08-12T05:00:05;19.13;99.99
68251;DHT22;55066;51.560;4.642;2023-08-12T05:02:34;19.17;99.99
68251;DHT22;55066;51.560;4.642;2023-08-12T05:04:59;19.10;99.99
68251;DHT22;55066;51.560;4.642;2023-08-12T05:07:25;19.13;99.99
68251;DHT22;55066;51.560;4.642;2023-08-12T05:09:50;19.17;99.99
68251;DHT22;55066;51.560;4.642;2023-08-12T05:12:16;19.18;99.99
68251;DHT22;55066;51.560;4.642;2023-08-12T05:14:41;19.25;99.99
68251;DHT22;55066;51.560;4.642;2023-08-12T05:17:07;19.21;99.99
68251;DHT22;55066;51.560;4.642;2023-08-12T05:19:34;19.17;99.99
68251;DHT22;55066;51.560;4.642;2023-08-12T05:22:00;19.21;99.99
68251;DHT22;55066;51.560;4.642;2023-08-12T05:24:26;19.15;99.99
68251;DHT22;55066;51.560;4.642;2023-08-12T05:26:51;19.14;99.99
68251;DHT22;55066;51.560;4.642;2023-08-12T05:29:17;19.20;99.99
68251;DHT22;55066;51.560;4.642;2023-08-12T05:31:42;19.21;99.99
68251;DHT22;55066;51.560;4.642;2023-08-12T05:34:08;19.15;99.99
68251;DHT22;55066;51.560;4.642;2023-08-12T05:36:33;19.13;99.99
68251;DHT22;55066;51.560;4.642;2023-08-12T05:38:59;19.20;99.99
68251;DHT22;55066;51.560;4.642;2023-08-12T05:41:24;19.15;99.99
68251;DHT22;55066;51.560;4.642;2023-08-12T05:43:50;19.15;99.99
68251;DHT22;55066;51.560;4.642;2023-08-12T05:46:16;19.14;99.99
68251;DHT22;55066;51.560;4.642;2023-08-12T05:48:41;19.08;99.99
68251;DHT22;55066;51.560;4.642;2023-08-12T05:51:07;19.10;99.99
68251;DHT22;55066;51.560;4.642;2023-08-12T05:53:32;19.06;99.99
68251;DHT22;55066;51.560;4.642;2023-08-12T05:55:58;19.04;99.99
68251;DHT22;55066;51.560;4.642;2023-08-12T05:58:24;18.96;99.99
68251;DHT22;55066;51.560;4.642;2023-08-12T06:00:49;19.04;99.99
68251;DHT22;55066;51.560;4.642;2023-08-12T06:03:15;19.04;99.99
68251;DHT22;55066;51.560;4.642;2023-08-12T06:05:44;19.06;99.99
68251;DHT22;55066;51.560;4.642;2023-08-12T06:08:10;19.08;99.99
68251;DHT22;55066;51.560;4.642;2023-08-12T06:10:35;19.00;99.99
68251;DHT22;55066;51.560;4.642;2023-08-12T06:13:01;19.00;99.99
68251;DHT22;55066;51.560;4.642;2023-08-12T06:15:26;18.96;99.99
68251;DHT22;55066;51.560;4.642;2023-08-12T06:17:51;18.89;99.99
68251;DHT22;55066;51.560;4.642;2023-08-12T06:20:17;19.02;99.99
68251;DHT22;55066;51.560;4.642;2023-08-12T06:22:42;18.95;99.99
68251;DHT22;55066;51.560;4.642;2023-08-12T06:25:08;18.95;99.99
68251;DHT22;55066;51.560;4.642;2023-08-12T06:27:33;18.99;99.99
68251;DHT22;55066;51.560;4.642;2023-08-12T06:29:59;18.96;99.99
68251;DHT22;55066;51.560;4.642;2023-08-12T06:32:24;18.93;99.99
68251;DHT22;55066;51.560;4.642;2023-08-12T06:34:50;19.00;99.99
68251;DHT22;55066;51.560;4.642;2023-08-12T06:37:15;19.00;99.99
68251;DHT22;55066;51.560;4.642;2023-08-12T06:39:41;18.95;99.99
68251;DHT22;55066;51.560;4.642;2023-08-12T06:42:06;18.96;99.99
68251;DHT22;55066;51.560;4.642;2023-08-12T06:44:32;18.97;99.99
68251;DHT22;55066;51.560;4.642;2023-08-12T06:46:57;18.92;99.99
68251;DHT22;55066;51.560;4.642;2023-08-12T06:49:23;18.79;99.99
68251;DHT22;55066;51.560;4.642;2023-08-12T06:51:48;18.89;99.99
68251;DHT22;55066;51.560;4.642;2023-08-12T06:54:14;18.87;99.99
68251;DHT22;55066;51.560;4.642;2023-08-12T06:56:39;18.69;99.99
68251;DHT22;55066;51.560;4.642;2023-08-12T06:59:05;18.53;99.99
68251;DHT22;55066;51.560;4.642;2023-08-12T07:01:30;19.08;99.99
68251;DHT22;55066;51.560;4.642;2023-08-12T07:03:56;19.06;99.99
68251;DHT22;55066;51.560;4.642;2023-08-12T07:06:22;19.47;99.99
68251;DHT22;55066;51.560;4.642;2023-08-12T07:08:47;19.45;99.99
68251;DHT22;55066;51.560;4.642;2023-08-12T07:11:13;19.82;99.99
68251;DHT22;55066;51.560;4.642;2023-08-12T07:13:38;19.76;99.99
68251;DHT22;55066;51.560;4.642;2023-08-12T07:16:04;19.87;99.99
68251;DHT22;55066;51.560;4.642;2023-08-12T07:18:29;19.69;99.99
68251;DHT22;55066;51.560;4.642;2023-08-12T07:20:56;19.68;99.26
68251;DHT22;55066;51.560;4.642;2023-08-12T07:23:23;19.66;99.99
68251;DHT22;55066;51.560;4.642;2023-08-12T07:25:49;19.83;99.99
68251;DHT22;55066;51.560;4.642;2023-08-12T07:28:15;19.87;99.99
68251;DHT22;55066;51.560;4.642;2023-08-12T07:30:40;19.65;99.99
68251;DHT22;55066;51.560;4.642;2023-08-12T07:33:06;19.52;99.99
68251;DHT22;55066;51.560;4.642;2023-08-12T07:35:32;19.15;99.99
68251;DHT22;55066;51.560;4.642;2023-08-12T07:37:57;19.00;99.99
68251;DHT22;55066;51.560;4.642;2023-08-12T07:40:23;18.87;99.99
68251;DHT22;55066;51.560;4.642;2023-08-12T07:42:48;18.77;99.99
68251;DHT22;55066;51.560;4.642;2023-08-12T07:45:14;18.39;99.99
68251;DHT22;55066;51.560;4.642;2023-08-12T07:47:39;18.48;99.99
68251;DHT22;55066;51.560;4.642;2023-08-12T07:50:05;18.73;99.99
68251;DHT22;55066;51.560;4.642;2023-08-12T07:52:31;18.90;99.99
68251;DHT22;55066;51.560;4.642;2023-08-12T07:54:56;18.93;99.99
68251;DHT22;55066;51.560;4.642;2023-08-12T07:57:22;18.76;99.99
68251;DHT22;55066;51.560;4.642;2023-08-12T07:59:52;18.59;99.99
68251;DHT22;55066;51.560;4.642;2023-08-12T08:02:17;18.60;99.99
68251;DHT22;55066;51.560;4.642;2023-08-12T08:04:43;18.82;99.99
68251;DHT22;55066;51.560;4.642;2023-08-12T08:07:08;18.59;99.99
68251;DHT22;55066;51.560;4.642;2023-08-12T08:09:34;18.24;99.99
68251;DHT22;55066;51.560;4.642;2023-08-12T08:11:59;18.42;99.99
68251;DHT22;55066;51.560;4.642;2023-08-12T08:14:26;19.08;99.99
68251;DHT22;55066;51.560;4.642;2023-08-12T08:16:53;19.38;99.99
68251;DHT22;55066;51.560;4.642;2023-08-12T08:19:18;19.45;99.43
68251;DHT22;55066;51.560;4.642;2023-08-12T08:21:44;19.36;99.99
68251;DHT22;55066;51.560;4.642;2023-08-12T08:24:10;19.11;99.99
68251;DHT22;55066;51.560;4.642;2023-08-12T08:26:39;19.11;99.99
68251;DHT22;55066;51.560;4.642;2023-08-12T08:29:06;19.11;99.47
68251;DHT22;55066;51.560;4.642;2023-08-12T08:31:31;19.11;99.99
68251;DHT22;55066;51.560;4.642;2023-08-12T08:33:57;19.02;99.99
68251;DHT22;55066;51.560;4.642;2023-08-12T08:36:22;19.17;99.99
68251;DHT22;55066;51.560;4.642;2023-08-12T08:38:48;18.96;99.99
68251;DHT22;55066;51.560;4.642;2023-08-12T08:41:16;18.82;99.99
68251;DHT22;55066;51.560;4.642;2023-08-12T08:43:42;18.93;99.99
68251;DHT22;55066;51.560;4.642;2023-08-12T08:46:14;18.87;99.99
68251;DHT22;55066;51.560;4.642;2023-08-12T08:48:41;18.75;99.99
68251;DHT22;55066;51.560;4.642;2023-08-12T08:51:08;18.83;99.99
68251;DHT22;55066;51.560;4.642;2023-08-12T08:53:37;19.07;99.99
68251;DHT22;55066;51.560;4.642;2023-08-12T08:56:07;19.47;99.99
68251;DHT22;55066;51.560;4.642;2023-08-12T08:58:33;19.65;99.99
68251;DHT22;55066;51.560;4.642;2023-08-12T09:00:59;20.03;97.56
68251;DHT22;55066;51.560;4.642;2023-08-12T09:03:26;20.23;99.82
68251;DHT22;55066;51.560;4.642;2023-08-12T09:05:53;20.43;97.75
68251;DHT22;55066;51.560;4.642;2023-08-12T09:08:21;20.43;98.60
68251;DHT22;55066;51.560;4.642;2023-08-12T09:10:48;20.26;99.64
68251;DHT22;55066;51.560;4.642;2023-08-12T09:13:14;20.28;99.49
68251;DHT22;55066;51.560;4.642;2023-08-12T09:15:40;20.40;97.35
68251;DHT22;55066;51.560;4.642;2023-08-12T09:18:06;20.75;99.99
68251;DHT22;55066;51.560;4.642;2023-08-12T09:20:33;20.81;99.02
68251;DHT22;55066;51.560;4.642;2023-08-12T09:22:59;20.92;99.99
68251;DHT22;55066;51.560;4.642;2023-08-12T09:25:26;21.02;99.33
68251;DHT22;55066;51.560;4.642;2023-08-12T09:27:54;21.09;96.62
68251;DHT22;55066;51.560;4.642;2023-08-12T09:30:20;21.06;98.89
68251;DHT22;55066;51.560;4.642;2023-08-12T09:33:02;21.14;97.30
68251;DHT22;55066;51.560;4.642;2023-08-12T09:35:47;21.26;98.52
68251;DHT22;55066;51.560;4.642;2023-08-12T09:38:13;21.30;95.49
68251;DHT22;55066;51.560;4.642;2023-08-12T09:40:39;21.48;96.32
68251;DHT22;55066;51.560;4.642;2023-08-12T09:43:05;21.48;95.38
68251;DHT22;55066;51.560;4.642;2023-08-12T09:45:32;21.77;94.13
68251;DHT22;55066;51.560;4.642;2023-08-12T09:47:57;22.44;93.80
68251;DHT22;55066;51.560;4.642;2023-08-12T09:50:25;22.56;92.90
68251;DHT22;55066;51.560;4.642;2023-08-12T09:52:51;22.05;94.81
68251;DHT22;55066;51.560;4.642;2023-08-12T09:55:18;21.73;95.41
68251;DHT22;55066;51.560;4.642;2023-08-12T09:57:48;21.54;95.00
68251;DHT22;55066;51.560;4.642;2023-08-12T10:00:15;21.92;94.97
68251;DHT22;55066;51.560;4.642;2023-08-12T10:02:49;22.09;95.68
68251;DHT22;55066;51.560;4.642;2023-08-12T10:05:26;22.50;94.01
68251;DHT22;55066;51.560;4.642;2023-08-12T10:07:53;23.29;94.01
68251;DHT22;55066;51.560;4.642;2023-08-12T10:10:19;23.75;90.89
68251;DHT22;55066;51.560;4.642;2023-08-12T10:12:45;23.23;92.31
68251;DHT22;55066;51.560;4.642;2023-08-12T10:15:12;23.32;92.68
68251;DHT22;55066;51.560;4.642;2023-08-12T10:17:38;23.85;91.65
68251;DHT22;55066;51.560;4.642;2023-08-12T10:20:05;24.01;90.95
68251;DHT22;55066;51.560;4.642;2023-08-12T10:22:34;23.77;90.65
68251;DHT22;55066;51.560;4.642;2023-08-12T10:25:02;23.66;91.51
68251;DHT22;55066;51.560;4.642;2023-08-12T10:27:28;23.91;91.86
68251;DHT22;55066;51.560;4.642;2023-08-12T10:29:57;24.07;90.37
68251;DHT22;55066;51.560;4.642;2023-08-12T10:32:24;24.15;90.13
68251;DHT22;55066;51.560;4.642;2023-08-12T10:34:56;24.35;90.29
68251;DHT22;55066;51.560;4.642;2023-08-12T10:37:23;24.66;89.54
68251;DHT22;55066;51.560;4.642;2023-08-12T10:39:49;24.48;89.18
68251;DHT22;55066;51.560;4.642;2023-08-12T10:42:44;24.33;88.78
68251;DHT22;55066;51.560;4.642;2023-08-12T10:45:11;24.40;88.99
68251;DHT22;55066;51.560;4.642;2023-08-12T10:47:51;24.62;89.54
68251;DHT22;55066;51.560;4.642;2023-08-12T10:50:20;24.28;87.28
68251;DHT22;55066;51.560;4.642;2023-08-12T10:52:47;24.07;88.10
68251;DHT22;55066;51.560;4.642;2023-08-12T10:55:26;23.96;89.09
68251;DHT22;55066;51.560;4.642;2023-08-12T10:57:54;24.22;89.01
68251;DHT22;55066;51.560;4.642;2023-08-12T11:00:23;24.37;89.95
68251;DHT22;55066;51.560;4.642;2023-08-12T11:02:50;24.43;86.66
68251;DHT22;55066;51.560;4.642;2023-08-12T11:05:16;24.76;88.55
68251;DHT22;55066;51.560;4.642;2023-08-12T11:07:57;25.03;87.85
68251;DHT22;55066;51.560;4.642;2023-08-12T11:10:29;25.19;87.24
68251;DHT22;55066;51.560;4.642;2023-08-12T11:12:57;25.14;86.30
68251;DHT22;55066;51.560;4.642;2023-08-12T11:17:56;25.59;85.15
68251;DHT22;55066;51.560;4.642;2023-08-12T11:20:22;25.66;86.99
68251;DHT22;55066;51.560;4.642;2023-08-12T11:22:48;25.62;83.90
68251;DHT22;55066;51.560;4.642;2023-08-12T11:25:14;25.43;86.59
68251;DHT22;55066;51.560;4.642;2023-08-12T11:27:47;25.66;85.24
68251;DHT22;55066;51.560;4.642;2023-08-12T11:30:15;25.52;84.53
68251;DHT22;55066;51.560;4.642;2023-08-12T11:32:45;25.90;83.53
68251;DHT22;55066;51.560;4.642;2023-08-12T11:35:12;26.68;87.73
68251;DHT22;55066;51.560;4.642;2023-08-12T11:37:39;26.75;83.60
68251;DHT22;55066;51.560;4.642;2023-08-12T11:40:07;26.90;85.18
68251;DHT22;55066;51.560;4.642;2023-08-12T11:42:35;26.63;82.17
68251;DHT22;55066;51.560;4.642;2023-08-12T11:45:00;26.38;82.10
68251;DHT22;55066;51.560;4.642;2023-08-12T11:47:25;26.24;86.01
68251;DHT22;55066;51.560;4.642;2023-08-12T11:49:52;26.86;86.11
68251;DHT22;55066;51.560;4.642;2023-08-12T11:52:19;26.76;84.64
68251;DHT22;55066;51.560;4.642;2023-08-12T11:54:44;26.66;83.32
68251;DHT22;55066;51.560;4.642;2023-08-12T11:57:10;26.17;79.57
68251;DHT22;55066;51.560;4.642;2023-08-12T11:59:36;26.58;82.26
68251;DHT22;55066;51.560;4.642;2023-08-12T12:02:02;26.68;81.87
68251;DHT22;55066;51.560;4.642;2023-08-12T12:04:30;26.97;84.36
68251;DHT22;55066;51.560;4.642;2023-08-12T12:06:56;27.17;82.30
68251;DHT22;55066;51.560;4.642;2023-08-12T12:09:22;27.37;83.61
68251;DHT22;55066;51.560;4.642;2023-08-12T12:11:52;27.27;79.17
68251;DHT22;55066;51.560;4.642;2023-08-12T12:14:18;27.33;79.24
68251;DHT22;55066;51.560;4.642;2023-08-12T12:16:47;27.47;78.14
68251;DHT22;55066;51.560;4.642;2023-08-12T12:21:42;28.02;79.58
68251;DHT22;55066;51.560;4.642;2023-08-12T12:24:09;27.55;80.89
68251;DHT22;55066;51.560;4.642;2023-08-12T12:26:35;27.84;80.37
68251;DHT22;55066;51.560;4.642;2023-08-12T12:29:03;27.21;76.42
68251;DHT22;55066;51.560;4.642;2023-08-12T12:31:28;27.27;78.78
68251;DHT22;55066;51.560;4.642;2023-08-12T12:33:54;27.18;78.29
68251;DHT22;55066;51.560;4.642;2023-08-12T12:36:19;27.75;82.29
68251;DHT22;55066;51.560;4.642;2023-08-12T12:38:45;28.17;78.89
68251;DHT22;55066;51.560;4.642;2023-08-12T12:41:10;28.28;84.32
68251;DHT22;55066;51.560;4.642;2023-08-12T12:43:36;28.02;79.43
68251;DHT22;55066;51.560;4.642;2023-08-12T12:46:01;27.86;78.16
68251;DHT22;55066;51.560;4.642;2023-08-12T12:48:27;27.68;77.55
68251;DHT22;55066;51.560;4.642;2023-08-12T12:50:52;27.50;76.99
68251;DHT22;55066;51.560;4.642;2023-08-12T12:53:17;28.10;79.83
68251;DHT22;55066;51.560;4.642;2023-08-12T12:55:43;29.00;74.39
68251;DHT22;55066;51.560;4.642;2023-08-12T12:58:09;28.83;74.39
68251;DHT22;55066;51.560;4.642;2023-08-12T13:00:35;29.17;79.28
68251;DHT22;55066;51.560;4.642;2023-08-12T13:03:00;28.92;73.22
68251;DHT22;55066;51.560;4.642;2023-08-12T13:05:26;28.36;74.86
68251;DHT22;55066;51.560;4.642;2023-08-12T13:07:51;28.78;73.99
68251;DHT22;55066;51.560;4.642;2023-08-12T13:10:16;28.65;73.16
68251;DHT22;55066;51.560;4.642;2023-08-12T13:12:42;29.09;73.52
68251;DHT22;55066;51.560;4.642;2023-08-12T13:15:08;29.19;78.50
68251;DHT22;55066;51.560;4.642;2023-08-12T13:17:33;29.09;72.24
68251;DHT22;55066;51.560;4.642;2023-08-12T13:19:59;28.94;75.03
68251;DHT22;55066;51.560;4.642;2023-08-12T13:22:24;29.02;78.03
68251;DHT22;55066;51.560;4.642;2023-08-12T13:24:49;28.88;73.95
68251;DHT22;55066;51.560;4.642;2023-08-12T13:27:15;29.13;75.25
68251;DHT22;55066;51.560;4.642;2023-08-12T13:29:42;29.55;79.54
68251;DHT22;55066;51.560;4.642;2023-08-12T13:32:08;29.42;74.31
68251;DHT22;55066;51.560;4.642;2023-08-12T13:34:34;29.22;71.44
68251;DHT22;55066;51.560;4.642;2023-08-12T13:37:00;29.13;78.77
68251;DHT22;55066;51.560;4.642;2023-08-12T13:39:26;27.97;73.86
68251;DHT22;55066;51.560;4.642;2023-08-12T13:41:51;27.95;77.82
68251;DHT22;55066;51.560;4.642;2023-08-12T13:44:16;27.89;75.70
68251;DHT22;55066;51.560;4.642;2023-08-12T13:46:42;27.86;79.85
68251;DHT22;55066;51.560;4.642;2023-08-12T13:49:07;28.33;79.20
68251;DHT22;55066;51.560;4.642;2023-08-12T13:51:33;28.34;77.79
68251;DHT22;55066;51.560;4.642;2023-08-12T13:53:58;28.17;81.68
68251;DHT22;55066;51.560;4.642;2023-08-12T13:56:24;28.14;80.87
68251;DHT22;55066;51.560;4.642;2023-08-12T13:58:49;28.60;84.90
68251;DHT22;55066;51.560;4.642;2023-08-12T14:01:15;28.79;77.97
68251;DHT22;55066;51.560;4.642;2023-08-12T14:03:40;28.83;77.43
68251;DHT22;55066;51.560;4.642;2023-08-12T14:06:06;31.40;78.36
68251;DHT22;55066;51.560;4.642;2023-08-12T14:08:31;31.51;71.79
68251;DHT22;55066;51.560;4.642;2023-08-12T14:10:56;32.25;69.40
68251;DHT22;55066;51.560;4.642;2023-08-12T14:13:22;30.15;71.10
68251;DHT22;55066;51.560;4.642;2023-08-12T14:15:47;29.27;76.22
68251;DHT22;55066;51.560;4.642;2023-08-12T14:18:13;28.83;77.55
68251;DHT22;55066;51.560;4.642;2023-08-12T14:20:38;30.05;79.00
68251;DHT22;55066;51.560;4.642;2023-08-12T14:23:04;30.71;76.51
68251;DHT22;55066;51.560;4.642;2023-08-12T14:25:30;29.81;73.73
68251;DHT22;55066;51.560;4.642;2023-08-12T14:27:55;29.20;74.09
68251;DHT22;55066;51.560;4.642;2023-08-12T14:30:24;29.74;80.80
68251;DHT22;55066;51.560;4.642;2023-08-12T14:32:50;28.37;80.62
68251;DHT22;55066;51.560;4.642;2023-08-12T14:35:16;28.30;72.93
68251;DHT22;55066;51.560;4.642;2023-08-12T14:37:41;27.97;75.55
68251;DHT22;55066;51.560;4.642;2023-08-12T14:40:07;29.03;73.21
68251;DHT22;55066;51.560;4.642;2023-08-12T14:42:33;28.27;76.14
68251;DHT22;55066;51.560;4.642;2023-08-12T14:45:00;28.14;84.16
68251;DHT22;55066;51.560;4.642;2023-08-12T14:47:25;28.24;80.21
68251;DHT22;55066;51.560;4.642;2023-08-12T14:49:51;28.88;81.12
68251;DHT22;55066;51.560;4.642;2023-08-12T14:52:19;29.67;71.94
68251;DHT22;55066;51.560;4.642;2023-08-12T14:54:46;29.22;78.92
68251;DHT22;55066;51.560;4.642;2023-08-12T14:57:11;29.71;77.13
68251;DHT22;55066;51.560;4.642;2023-08-12T14:59:37;29.31;78.81
68251;DHT22;55066;51.560;4.642;2023-08-12T15:02:03;29.08;81.23
68251;DHT22;55066;51.560;4.642;2023-08-12T15:04:29;29.03;80.85
68251;DHT22;55066;51.560;4.642;2023-08-12T15:06:54;28.96;79.91
68251;DHT22;55066;51.560;4.642;2023-08-12T15:09:20;29.26;75.82
68251;DHT22;55066;51.560;4.642;2023-08-12T15:11:45;28.76;72.09
68251;DHT22;55066;51.560;4.642;2023-08-12T15:14:10;28.76;73.64
68251;DHT22;55066;51.560;4.642;2023-08-12T15:16:36;29.44;75.98
68251;DHT22;55066;51.560;4.642;2023-08-12T15:19:03;29.58;77.41
68251;DHT22;55066;51.560;4.642;2023-08-12T15:21:29;29.84;75.52
68251;DHT22;55066;51.560;4.642;2023-08-12T15:23:54;30.16;76.99
68251;DHT22;55066;51.560;4.642;2023-08-12T15:26:20;29.30;72.15
68251;DHT22;55066;51.560;4.642;2023-08-12T15:28:48;29.40;70.52
68251;DHT22;55066;51.560;4.642;2023-08-12T15:31:14;30.29;75.14